Time;durP1;ratioP1;P1;durP2;ratioP2;P2;SDS_P1;SDS_P2;PMS_P1;PMS_P2;Temp;Humidity;BMP_temperature;BMP_pressure;BME280_temperature;BME280_humidity;BME280_pressure;Samples;Min_cycle;Max_cycle;Signal;HPM_P1;HPM_P2
2021/01/12 00:02:23;;;;;;;8.55;5.07;;;1.80;99.90;;;;;;5078333;28;20648;-50
2021/01/12 00:04:51;;;;;;;6.68;4.10;;;1.80;99.90;;;;;;5096788;28;20182;-54
2021/01/12 00:07:20;;;;;;;4.20;3.47;;;1.70;99.90;;;;;;5096497;28;20199;-53
2021/01/12 00:09:48;;;;;;;6.05;3.45;;;1.70;99.90;;;;;;5096357;28;20203;-54
2021/01/12 00:12:17;;;;;;;10.10;6.38;;;1.80;99.90;;;;;;5080082;28;20230;-55
2021/01/12 00:14:44;;;;;;;6.20;4.60;;;1.80;99.90;;;;;;5057228;28;20551;-55
2021/01/12 00:17:13;;;;;;;7.18;6.35;;;1.80;99.90;;;;;;5075335;28;20192;-52
2021/01/12 00:19:40;;;;;;;5.88;4.35;;;1.90;99.90;;;;;;5075188;28;20191;-54
2021/01/12 00:22:14;;;;;;;5.80;4.82;;;1.80;99.90;;;;;;5075309;28;20676;-54
2021/01/12 00:24:43;;;;;;;3.88;3.28;;;1.80;99.90;;;;;;5074925;28;20579;-55
2021/01/12 00:27:10;;;;;;;5.13;4.57;;;1.80;99.90;;;;;;5075043;28;20173;-52
2021/01/12 00:29:38;;;;;;;6.75;5.28;;;1.80;99.90;;;;;;5075048;28;20176;-54
2021/01/12 00:32:06;;;;;;;6.03;4.82;;;1.80;99.90;;;;;;5073974;28;20184;-52
2021/01/12 00:34:35;;;;;;;5.53;3.92;;;1.80;99.90;;;;;;5057504;28;20663;-50
2021/01/12 00:37:02;;;;;;;7.97;4.53;;;1.80;99.90;;;;;;5075452;28;20176;-52
2021/01/12 00:39:30;;;;;;;7.78;4.38;;;1.70;99.90;;;;;;5074926;28;20184;-54
2021/01/12 00:41:58;;;;;;;6.47;4.70;;;1.70;99.90;;;;;;5074754;28;20192;-54
2021/01/12 00:44:25;;;;;;;6.13;5.20;;;1.70;99.90;;;;;;5074575;28;20183;-54
2021/01/12 00:46:54;;;;;;;5.28;4.53;;;1.70;99.90;;;;;;5075044;28;20180;-57
2021/01/12 00:49:22;;;;;;;9.02;7.40;;;1.70;99.90;;;;;;5074868;28;20273;-58
2021/01/12 00:51:52;;;;;;;7.68;5.85;;;1.70;99.90;;;;;;5074874;28;20192;-57
2021/01/12 00:54:22;;;;;;;6.18;4.82;;;1.80;99.90;;;;;;5074472;28;20196;-54
2021/01/12 00:56:50;;;;;;;6.13;3.92;;;1.70;99.90;;;;;;5074636;28;20183;-57
2021/01/12 00:59:17;;;;;;;7.30;4.82;;;1.80;99.90;;;;;;5074539;28;20176;-56
2021/01/12 01:01:45;;;;;;;5.70;4.78;;;1.80;99.90;;;;;;5074956;28;20544;-51
2021/01/12 01:04:14;;;;;;;5.72;4.85;;;1.80;99.90;;;;;;5074586;28;20216;-53
2021/01/12 01:06:43;;;;;;;8.32;4.40;;;1.80;99.90;;;;;;5074618;28;20173;-57
2021/01/12 01:09:12;;;;;;;7.57;4.93;;;1.80;99.90;;;;;;5074222;28;20542;-54
2021/01/12 01:11:42;;;;;;;6.90;4.47;;;1.80;99.90;;;;;;5055994;28;20222;-54
2021/01/12 01:14:10;;;;;;;5.03;4.07;;;1.90;99.90;;;;;;5074302;28;20180;-54
2021/01/12 01:16:37;;;;;;;6.93;5.43;;;1.90;99.90;;;;;;5074258;28;20198;-52
2021/01/12 01:19:05;;;;;;;6.00;4.35;;;1.90;99.90;;;;;;5056238;28;20228;-53
2021/01/12 01:21:33;;;;;;;5.80;2.33;;;1.90;99.90;;;;;;5074045;28;20212;-55
2021/01/12 01:24:00;;;;;;;10.40;6.90;;;1.90;99.90;;;;;;5074406;28;20222;-52
2021/01/12 01:26:28;;;;;;;14.65;7.35;;;1.90;99.90;;;;;;5056320;28;20198;-54
2021/01/12 01:28:56;;;;;;;6.40;5.30;;;2.00;99.90;;;;;;5074299;28;20180;-53
2021/01/12 01:31:24;;;;;;;11.02;4.97;;;2.00;99.90;;;;;;5074242;28;20222;-56
2021/01/12 01:33:52;;;;;;;5.68;4.03;;;2.00;99.90;;;;;;5074081;28;20652;-56
2021/01/12 01:36:19;;;;;;;6.07;5.47;;;2.00;99.90;;;;;;5073572;28;20212;-53
2021/01/12 01:38:46;;;;;;;11.25;5.72;;;2.00;99.90;;;;;;5073839;28;20177;-55
2021/01/12 01:41:13;;;;;;;8.23;4.45;;;2.00;99.90;;;;;;5055571;28;20250;-53
2021/01/12 01:43:41;;;;;;;5.50;3.95;;;2.00;99.90;;;;;;5073828;28;20206;-54
2021/01/12 01:46:09;;;;;;;7.15;5.43;;;2.00;99.90;;;;;;5073643;28;20240;-54
2021/01/12 01:48:37;;;;;;;5.95;4.93;;;2.00;99.90;;;;;;5073932;28;20176;-57
2021/01/12 01:51:06;;;;;;;10.98;5.57;;;2.00;99.90;;;;;;5073690;28;20203;-53
2021/01/12 01:53:35;;;;;;;6.10;5.60;;;2.00;99.90;;;;;;5073511;28;20194;-54
2021/01/12 01:56:05;;;;;;;9.75;6.72;;;1.90;99.90;;;;;;5074200;28;20716;-54
2021/01/12 01:58:37;;;;;;;7.68;5.75;;;1.80;99.90;;;;;;5074204;28;20176;-58
2021/01/12 02:01:06;;;;;;;5.75;4.50;;;1.70;99.90;;;;;;5073977;28;20258;-56
2021/01/12 02:03:39;;;;;;;10.23;6.03;;;1.60;99.90;;;;;;5074453;28;20533;-54
2021/01/12 02:06:15;;;;;;;8.55;5.32;;;1.50;99.90;;;;;;5055350;28;20223;-52
2021/01/12 02:08:48;;;;;;;7.43;5.15;;;1.50;99.90;;;;;;5073846;28;20541;-50
2021/01/12 02:11:23;;;;;;;8.50;6.97;;;1.40;99.90;;;;;;5073735;28;20615;-56
2021/01/12 02:13:56;;;;;;;8.68;5.43;;;1.40;99.90;;;;;;5074597;28;20176;-56
2021/01/12 02:16:28;;;;;;;11.13;6.43;;;1.30;99.90;;;;;;5074385;28;20177;-56
2021/01/12 02:18:57;;;;;;;7.22;6.30;;;1.20;99.90;;;;;;5074379;28;20196;-56
2021/01/12 02:22:20;;;;;;;9.85;6.90;;;1.30;99.90;;;;;;5074487;28;20700;-51
2021/01/12 02:24:48;;;;;;;7.35;4.25;;;1.20;99.90;;;;;;5073900;28;20180;-56
2021/01/12 02:27:20;;;;;;;11.10;7.88;;;1.20;99.90;;;;;;5074717;28;20176;-53
2021/01/12 02:29:49;;;;;;;14.90;5.85;;;1.20;99.90;;;;;;5074085;28;20212;-52
2021/01/12 02:32:17;;;;;;;14.25;6.30;;;1.10;99.90;;;;;;5075829;28;20515;-54
2021/01/12 02:34:46;;;;;;;5.93;4.55;;;1.10;99.90;;;;;;5074092;28;20188;-55
2021/01/12 02:37:15;;;;;;;10.60;6.70;;;1.10;99.90;;;;;;5055929;28;20196;-54
2021/01/12 02:39:43;;;;;;;13.15;5.30;;;1.10;99.90;;;;;;5073779;28;20638;-56
2021/01/12 02:42:15;;;;;;;9.90;7.95;;;1.10;99.90;;;;;;5073884;28;20192;-51
2021/01/12 02:44:42;;;;;;;12.45;8.43;;;1.00;99.90;;;;;;5074359;28;20267;-56
2021/01/12 02:47:10;;;;;;;10.88;7.03;;;1.00;99.90;;;;;;5056357;28;20191;-51
2021/01/12 02:49:37;;;;;;;8.20;7.28;;;1.00;99.90;;;;;;5073974;28;20551;-53
2021/01/12 02:52:05;;;;;;;13.05;8.48;;;1.00;99.90;;;;;;5073953;28;20179;-50
2021/01/12 02:54:32;;;;;;;10.70;6.93;;;1.00;99.90;;;;;;5072634;28;20182;-52
2021/01/12 02:56:59;;;;;;;14.85;9.88;;;1.10;99.90;;;;;;5072781;28;20176;-53
2021/01/12 02:59:28;;;;;;;13.20;7.05;;;1.10;99.90;;;;;;5073117;28;20237;-56
2021/01/12 03:01:55;;;;;;;8.52;7.20;;;1.00;99.90;;;;;;5072776;28;20204;-58
2021/01/12 03:04:23;;;;;;;6.18;5.43;;;1.00;99.90;;;;;;5073049;28;20226;-58
2021/01/12 03:06:50;;;;;;;8.50;6.50;;;1.10;99.90;;;;;;5072994;28;20184;-52
2021/01/12 03:09:17;;;;;;;9.98;5.15;;;1.10;99.90;;;;;;5073270;28;20187;-51
2021/01/12 03:11:50;;;;;;;8.50;5.50;;;1.10;99.90;;;;;;5072951;28;20200;-53
2021/01/12 03:14:17;;;;;;;10.50;5.47;;;1.00;99.90;;;;;;5073702;28;20262;-53
2021/01/12 03:16:46;;;;;;;11.90;6.00;;;1.00;99.90;;;;;;5088073;22;20229;-45
2021/01/12 03:19:14;;;;;;;11.82;7.80;;;1.10;99.90;;;;;;5030247;28;20245;-48
2021/01/12 03:21:41;;;;;;;11.90;5.93;;;1.00;99.90;;;;;;5032042;28;20213;-49
2021/01/12 03:24:08;;;;;;;16.38;8.38;;;1.00;99.90;;;;;;5032931;28;20240;-46
2021/01/12 03:26:35;;;;;;;14.07;8.18;;;1.00;99.90;;;;;;5032961;28;20208;-46
2021/01/12 03:29:03;;;;;;;5.63;5.05;;;1.10;99.90;;;;;;5032630;28;20276;-51
2021/01/12 03:31:35;;;;;;;6.28;4.80;;;1.10;99.90;;;;;;5031570;28;20271;-52
2021/01/12 03:34:03;;;;;;;14.48;7.63;;;1.10;99.90;;;;;;5031850;28;20255;-46
2021/01/12 03:36:30;;;;;;;8.68;6.28;;;1.10;99.90;;;;;;5031812;28;20196;-48
2021/01/12 03:38:58;;;;;;;9.52;7.00;;;1.10;99.90;;;;;;5031935;28;20644;-50
2021/01/12 03:41:25;;;;;;;9.77;6.93;;;1.10;99.90;;;;;;5031604;28;20673;-48
2021/01/12 03:43:52;;;;;;;8.90;6.22;;;1.20;99.90;;;;;;5031765;28;20185;-51
2021/01/12 03:46:20;;;;;;;11.25;6.97;;;1.20;99.90;;;;;;5031375;28;20185;-54
2021/01/12 03:48:47;;;;;;;9.32;6.60;;;1.20;99.90;;;;;;5032142;28;20192;-47
2021/01/12 03:51:15;;;;;;;8.38;6.10;;;1.20;99.90;;;;;;5031531;28;20212;-47
2021/01/12 03:53:42;;;;;;;8.43;6.88;;;1.20;99.90;;;;;;5031763;28;20622;-52
2021/01/12 03:56:13;;;;;;;11.20;7.88;;;1.20;99.90;;;;;;5031591;28;20182;-44
2021/01/12 03:58:40;;;;;;;6.65;5.30;;;1.20;99.90;;;;;;5031747;28;20185;-47
2021/01/12 04:01:08;;;;;;;11.45;7.20;;;1.30;99.90;;;;;;5031263;28;20264;-50
2021/01/12 04:03:35;;;;;;;11.20;9.15;;;1.30;99.90;;;;;;5031600;28;20243;-49
2021/01/12 04:06:04;;;;;;;19.05;9.82;;;1.30;99.90;;;;;;5032438;28;20272;-45
2021/01/12 04:08:32;;;;;;;15.70;8.90;;;1.30;99.90;;;;;;5034932;28;20188;-49
2021/01/12 04:10:59;;;;;;;11.98;7.90;;;1.30;99.90;;;;;;5035135;28;20225;-44
2021/01/12 04:13:26;;;;;;;11.68;8.07;;;1.40;99.90;;;;;;5034777;28;20188;-47
2021/01/12 04:15:53;;;;;;;10.75;7.35;;;1.40;99.90;;;;;;5034746;28;20194;-47
2021/01/12 04:18:21;;;;;;;14.30;8.95;;;1.40;99.90;;;;;;5034965;28;20204;-47
2021/01/12 04:20:48;;;;;;;15.02;9.80;;;1.40;99.90;;;;;;5034831;28;20212;-51
2021/01/12 04:23:15;;;;;;;11.77;8.43;;;1.40;99.90;;;;;;5035789;28;20166;-50
2021/01/12 04:25:43;;;;;;;12.95;7.78;;;1.40;99.90;;;;;;5036637;28;20574;-51
2021/01/12 04:28:10;;;;;;;13.63;6.97;;;1.40;99.90;;;;;;5035479;28;20173;-50
2021/01/12 04:30:37;;;;;;;18.23;10.23;;;1.50;99.90;;;;;;5035868;28;20548;-46
2021/01/12 04:33:04;;;;;;;10.02;6.63;;;1.40;99.90;;;;;;5035455;28;20211;-50
2021/01/12 04:35:32;;;;;;;13.90;9.02;;;1.40;99.90;;;;;;5035254;28;20185;-44
2021/01/12 04:37:59;;;;;;;16.65;9.48;;;1.40;99.90;;;;;;5035545;28;20557;-51
2021/01/12 04:40:26;;;;;;;10.40;6.70;;;1.50;99.90;;;;;;5035000;28;20619;-46
2021/01/12 04:42:56;;;;;;;5.15;4.65;;;1.40;99.90;;;;;;5035336;28;20228;-47
2021/01/12 04:45:23;;;;;;;15.95;9.77;;;1.40;99.90;;;;;;5035099;28;20189;-46
2021/01/12 04:47:51;;;;;;;14.77;10.68;;;1.40;99.90;;;;;;5034680;28;20657;-48
2021/01/12 04:50:18;;;;;;;9.40;6.63;;;1.40;99.90;;;;;;5034400;28;20753;-45
2021/01/12 04:52:47;;;;;;;10.68;6.88;;;1.40;99.90;;;;;;5034431;28;20174;-43
2021/01/12 04:55:15;;;;;;;8.32;7.40;;;1.40;99.90;;;;;;5034079;28;20189;-51
2021/01/12 04:57:43;;;;;;;15.35;10.50;;;1.40;99.90;;;;;;5034347;28;20688;-45
2021/01/12 05:00:15;;;;;;;9.88;8.45;;;1.50;99.90;;;;;;5033850;28;20225;-45
2021/01/12 05:02:43;;;;;;;12.15;8.20;;;1.40;99.90;;;;;;5034495;28;20178;-45
2021/01/12 05:05:11;;;;;;;14.38;8.48;;;1.40;99.90;;;;;;5034635;28;20589;-48
2021/01/12 05:07:39;;;;;;;10.80;6.90;;;1.40;99.90;;;;;;5034340;28;20265;-47
2021/01/12 05:10:10;;;;;;;11.63;7.80;;;1.50;99.90;;;;;;5034360;28;20209;-46
2021/01/12 05:12:40;;;;;;;11.15;8.73;;;1.40;99.90;;;;;;5033891;28;20272;-49
2021/01/12 05:15:10;;;;;;;11.27;8.57;;;1.40;99.90;;;;;;5033923;28;20194;-50
2021/01/12 05:17:38;;;;;;;9.02;5.65;;;1.40;99.90;;;;;;5033380;28;20197;-45
2021/01/12 05:20:08;;;;;;;9.82;6.18;;;1.50;99.90;;;;;;5032509;28;20224;-48
2021/01/12 05:22:40;;;;;;;12.55;8.32;;;1.50;99.90;;;;;;5033682;28;20177;-45
2021/01/12 05:25:19;;;;;;;10.35;6.20;;;1.50;99.90;;;;;;5033842;28;20260;-47
2021/01/12 05:27:53;;;;;;;6.63;6.10;;;1.50;99.90;;;;;;5033763;28;20173;-48
2021/01/12 05:30:25;;;;;;;18.40;9.13;;;1.40;99.90;;;;;;5033691;28;20205;-49
2021/01/12 05:32:54;;;;;;;11.02;9.60;;;1.50;99.90;;;;;;5033769;28;20182;-51
2021/01/12 05:35:25;;;;;;;11.70;9.02;;;1.50;99.90;;;;;;5033558;28;20182;-46
2021/01/12 05:38:00;;;;;;;14.50;10.15;;;1.40;99.90;;;;;;5034048;28;20236;-48
2021/01/12 05:40:31;;;;;;;15.63;11.43;;;1.50;99.90;;;;;;5033520;28;20205;-47
2021/01/12 05:43:08;;;;;;;11.00;8.30;;;1.50;99.90;;;;;;5033366;28;20205;-48
2021/01/12 05:45:37;;;;;;;10.25;7.70;;;1.50;99.90;;;;;;5033372;28;20174;-49
2021/01/12 05:48:07;;;;;;;14.20;10.68;;;1.50;99.90;;;;;;5033114;28;20610;-47
2021/01/12 05:50:34;;;;;;;14.63;9.10;;;1.50;99.90;;;;;;5032930;28;20205;-47
2021/01/12 05:53:06;;;;;;;16.60;11.18;;;1.50;99.90;;;;;;5032785;28;20192;-50
2021/01/12 05:55:38;;;;;;;13.75;9.02;;;1.60;99.90;;;;;;5032560;28;20185;-46
2021/01/12 05:58:11;;;;;;;12.65;9.68;;;1.60;99.90;;;;;;5033212;28;20553;-49
2021/01/12 06:00:42;;;;;;;14.15;9.13;;;1.60;99.90;;;;;;5031797;28;20309;-45
2021/01/12 06:03:14;;;;;;;18.27;8.70;;;1.60;99.90;;;;;;5032654;28;20181;-45
2021/01/12 06:05:45;;;;;;;10.00;6.43;;;1.60;99.90;;;;;;5030698;28;20228;-47
2021/01/12 06:08:14;;;;;;;13.20;9.93;;;1.50;99.90;;;;;;5032676;28;20178;-49
2021/01/12 06:10:46;;;;;;;16.17;7.85;;;1.50;99.90;;;;;;5032555;28;20228;-44
2021/01/12 06:13:15;;;;;;;11.15;8.70;;;1.50;99.90;;;;;;5032339;28;20268;-45
2021/01/12 06:15:44;;;;;;;9.00;7.90;;;1.50;99.90;;;;;;5014806;28;20192;-44
2021/01/12 06:18:14;;;;;;;18.27;9.95;;;1.60;99.90;;;;;;5032328;28;20221;-47
2021/01/12 06:21:12;;;;;;;12.02;8.57;;;1.60;99.90;;;;;;5032157;28;20225;-50
2021/01/12 06:23:46;;;;;;;9.48;6.55;;;1.70;99.90;;;;;;5032177;28;20177;-44
2021/01/12 06:26:15;;;;;;;10.57;8.05;;;1.70;99.90;;;;;;5032329;28;20174;-45
2021/01/12 06:28:43;;;;;;;17.63;13.88;;;1.70;99.90;;;;;;5031772;28;20458;-50
2021/01/12 06:31:11;;;;;;;18.45;10.60;;;1.70;99.90;;;;;;5040150;28;20214;-50
2021/01/12 06:33:40;;;;;;;10.18;8.82;;;1.70;99.90;;;;;;5037493;28;20838;-48
2021/01/12 06:36:08;;;;;;;13.90;12.38;;;1.70;99.90;;;;;;5032348;28;20671;-50
2021/01/12 06:38:37;;;;;;;19.70;9.77;;;1.70;99.90;;;;;;5032091;28;20689;-52
2021/01/12 06:41:07;;;;;;;11.00;8.93;;;1.70;99.90;;;;;;5031556;28;20286;-49
2021/01/12 06:43:36;;;;;;;12.13;9.10;;;1.80;99.90;;;;;;5031212;28;20417;-44
2021/01/12 06:46:04;;;;;;;21.17;10.88;;;1.70;99.90;;;;;;5032295;28;20182;-49
2021/01/12 06:48:43;;;;;;;14.63;10.32;;;1.80;99.90;;;;;;5032142;28;20264;-47
2021/01/12 06:51:10;;;;;;;12.45;7.88;;;1.80;99.90;;;;;;5032452;28;20247;-47
2021/01/12 06:53:44;;;;;;;8.88;7.25;;;1.80;99.90;;;;;;5031973;28;20236;-46
2021/01/12 06:56:12;;;;;;;10.98;9.90;;;1.80;99.90;;;;;;5031523;28;20188;-47
2021/01/12 06:58:45;;;;;;;13.48;11.98;;;1.80;99.90;;;;;;5031601;28;20174;-45
2021/01/12 07:01:22;;;;;;;11.00;7.72;;;1.90;99.90;;;;;;5033988;28;20710;-52
2021/01/12 07:03:51;;;;;;;14.68;8.95;;;1.90;99.90;;;;;;5052178;28;20168;-52
2021/01/12 07:06:25;;;;;;;12.95;9.98;;;1.90;99.90;;;;;;5052833;28;20675;-51
2021/01/12 07:08:54;;;;;;;17.13;10.77;;;1.80;99.90;;;;;;5053032;28;20565;-51
2021/01/12 07:11:22;;;;;;;12.45;9.80;;;1.80;99.90;;;;;;5052944;28;20220;-52
2021/01/12 07:13:51;;;;;;;16.30;10.50;;;1.90;99.90;;;;;;5052473;28;20250;-50
2021/01/12 07:16:19;;;;;;;11.75;9.75;;;1.90;99.90;;;;;;5052731;28;20193;-51
2021/01/12 07:18:58;;;;;;;15.10;9.98;;;2.00;99.90;;;;;;5052474;28;20189;-51
2021/01/12 07:21:29;;;;;;;11.70;9.98;;;1.90;99.90;;;;;;5052398;28;20492;-47
2021/01/12 07:24:07;;;;;;;9.43;7.07;;;2.00;99.90;;;;;;5052542;28;20227;-49
2021/01/12 07:26:34;;;;;;;12.38;10.65;;;1.90;99.90;;;;;;5052673;28;20183;-52
2021/01/12 07:29:06;;;;;;;13.40;9.98;;;2.00;99.90;;;;;;5052526;28;20169;-49
2021/01/12 07:31:33;;;;;;;13.43;11.52;;;2.00;99.90;;;;;;5052628;28;20549;-51
2021/01/12 07:34:01;;;;;;;15.30;9.43;;;2.00;99.90;;;;;;5052855;28;20189;-49
2021/01/12 07:36:32;;;;;;;16.35;11.85;;;2.00;99.90;;;;;;5052755;28;20208;-46
2021/01/12 07:39:04;;;;;;;13.52;10.13;;;2.10;99.90;;;;;;5052543;28;20185;-48
2021/01/12 07:41:31;;;;;;;14.10;9.88;;;2.10;99.90;;;;;;5054391;28;20213;-49
2021/01/12 07:44:06;;;;;;;17.10;11.27;;;2.00;99.90;;;;;;5056533;28;20184;-51
2021/01/12 07:46:34;;;;;;;17.13;11.40;;;2.00;99.90;;;;;;5056605;28;20263;-51
2021/01/12 07:49:02;;;;;;;12.57;8.82;;;2.10;99.90;;;;;;5056406;28;20177;-48
2021/01/12 07:51:30;;;;;;;15.90;8.95;;;2.10;99.90;;;;;;5056161;28;20204;-49
2021/01/12 07:53:57;;;;;;;15.02;10.30;;;2.10;99.90;;;;;;5056620;28;20518;-53
2021/01/12 07:56:24;;;;;;;9.90;7.47;;;2.10;99.90;;;;;;5056184;28;20181;-49
2021/01/12 07:58:51;;;;;;;10.32;8.43;;;2.20;99.90;;;;;;5056239;28;20192;-48
2021/01/12 08:01:25;;;;;;;13.57;10.52;;;2.20;99.90;;;;;;5056640;28;20205;-48
2021/01/12 08:03:53;;;;;;;13.27;8.25;;;2.20;99.90;;;;;;5056770;28;20203;-47
2021/01/12 08:06:21;;;;;;;10.95;8.40;;;2.30;99.90;;;;;;5056674;28;20251;-49
2021/01/12 08:08:56;;;;;;;9.50;6.47;;;2.30;99.90;;;;;;5056125;28;20710;-47
2021/01/12 08:11:25;;;;;;;11.05;7.40;;;2.20;99.90;;;;;;5320720;22;20224;-49
2021/01/12 08:14:04;;;;;;;12.82;8.43;;;2.20;99.90;;;;;;5036277;28;20254;-52
2021/01/12 08:16:36;;;;;;;10.25;8.15;;;2.20;99.90;;;;;;5036423;28;20177;-45
2021/01/12 08:19:06;;;;;;;8.88;7.18;;;2.20;99.90;;;;;;5036504;28;20185;-52
2021/01/12 08:21:41;;;;;;;10.35;8.10;;;2.20;99.90;;;;;;5036132;28;20209;-50
2021/01/12 08:24:10;;;;;;;10.43;8.60;;;2.30;99.90;;;;;;5035799;28;20234;-48
2021/01/12 08:26:44;;;;;;;13.75;8.68;;;2.20;99.90;;;;;;5035992;28;20189;-53
2021/01/12 08:29:12;;;;;;;11.05;9.70;;;2.30;99.90;;;;;;5035692;28;20177;-48
2021/01/12 08:31:47;;;;;;;10.40;8.55;;;2.30;99.90;;;;;;5035384;28;20237;-54
2021/01/12 08:34:19;;;;;;;13.68;9.27;;;2.30;99.90;;;;;;5035659;28;20610;-49
2021/01/12 08:36:48;;;;;;;8.07;6.82;;;2.40;99.90;;;;;;5035800;28;20732;-52
2021/01/12 08:39:26;;;;;;;10.07;7.90;;;2.30;99.90;;;;;;5035194;28;20187;-53
2021/01/12 08:41:55;;;;;;;9.38;7.63;;;2.30;99.90;;;;;;5035416;28;20240;-50
2021/01/12 08:44:24;;;;;;;13.82;8.75;;;2.30;99.90;;;;;;5035339;28;20193;-52
2021/01/12 08:46:52;;;;;;;11.30;8.27;;;2.40;99.90;;;;;;5035650;28;20221;-48
2021/01/12 08:49:29;;;;;;;9.10;6.93;;;2.40;99.90;;;;;;5035440;28;20177;-49
2021/01/12 08:51:59;;;;;;;9.43;6.75;;;2.30;99.90;;;;;;5035190;28;20169;-53
2021/01/12 08:54:27;;;;;;;7.70;4.28;;;2.30;99.90;;;;;;5035736;28;20625;-50
2021/01/12 08:56:58;;;;;;;9.43;7.10;;;2.30;99.90;;;;;;5035100;28;20189;-52
2021/01/12 08:59:30;;;;;;;8.93;7.30;;;2.40;99.90;;;;;;5033898;28;20293;-49
2021/01/12 09:01:57;;;;;;;8.63;6.88;;;2.30;99.90;;;;;;5035070;28;20300;-49
2021/01/12 09:04:27;;;;;;;4.85;4.53;;;2.30;99.90;;;;;;5035329;28;20192;-53
2021/01/12 09:07:06;;;;;;;7.32;6.07;;;2.40;99.90;;;;;;5035662;28;20220;-51
2021/01/12 09:09:34;;;;;;;6.22;5.22;;;2.40;99.90;;;;;;5035264;28;20610;-50
2021/01/12 09:12:10;;;;;;;4.18;3.85;;;2.40;99.90;;;;;;5035158;28;20212;-51
2021/01/12 09:14:47;;;;;;;9.35;6.80;;;2.30;99.90;;;;;;5035230;28;20177;-50
2021/01/12 09:17:18;;;;;;;12.25;8.00;;;2.30;99.90;;;;;;5035007;28;20634;-51
2021/01/12 09:19:50;;;;;;;4.80;3.65;;;2.40;99.90;;;;;;5035225;28;20264;-49
2021/01/12 09:22:18;;;;;;;15.02;7.10;;;2.40;99.90;;;;;;5035443;28;20670;-49
2021/01/12 09:24:52;;;;;;;9.75;7.40;;;2.50;99.90;;;;;;5035108;28;20173;-56
2021/01/12 09:27:23;;;;;;;6.60;5.22;;;2.50;99.90;;;;;;5035059;28;20174;-53
2021/01/12 09:29:51;;;;;;;8.90;6.63;;;2.50;99.90;;;;;;5033611;28;20240;-50
2021/01/12 09:32:29;;;;;;;6.60;5.55;;;2.40;99.90;;;;;;5035624;28;20446;-49
2021/01/12 09:34:57;;;;;;;6.38;4.75;;;2.40;99.90;;;;;;5035830;28;20253;-49
2021/01/12 09:37:25;;;;;;;8.25;6.47;;;2.50;99.90;;;;;;5051012;28;20220;-49
2021/01/12 09:39:54;;;;;;;6.25;5.63;;;2.50;99.90;;;;;;5037340;28;20308;-55
2021/01/12 09:42:24;;;;;;;5.43;4.93;;;2.60;99.90;;;;;;5054362;28;20637;-49
2021/01/12 09:45:08;;;;;;;6.35;5.72;;;2.50;99.90;;;;;;5054339;28;20203;-51
2021/01/12 09:47:36;;;;;;;8.32;6.53;;;2.60;99.90;;;;;;5054519;28;20600;-47
2021/01/12 09:50:04;;;;;;;5.85;5.35;;;2.60;99.90;;;;;;5054118;28;20335;-49
2021/01/12 09:52:33;;;;;;;7.47;5.10;;;2.60;99.90;;;;;;5054548;28;20197;-51
2021/01/12 09:55:01;;;;;;;4.70;4.05;;;2.60;99.90;;;;;;5054548;28;20173;-54
2021/01/12 09:57:28;;;;;;;3.70;3.35;;;2.60;99.90;;;;;;5054190;28;20199;-52
2021/01/12 09:59:56;;;;;;;3.60;3.20;;;2.50;99.90;;;;;;5054201;28;20240;-51
2021/01/12 10:02:23;;;;;;;3.45;2.67;;;2.60;99.90;;;;;;5054078;28;20200;-49
2021/01/12 10:04:50;;;;;;;4.80;3.13;;;2.60;99.90;;;;;;5053982;28;20180;-52
2021/01/12 10:07:17;;;;;;;3.55;3.25;;;2.60;99.90;;;;;;5053850;28;20546;-52
2021/01/12 10:09:45;;;;;;;6.38;4.93;;;2.60;99.90;;;;;;5054017;28;20299;-49
2021/01/12 10:12:12;;;;;;;3.92;3.38;;;2.60;99.90;;;;;;5035690;28;20197;-52
2021/01/12 10:14:39;;;;;;;5.78;4.43;;;2.60;99.90;;;;;;5054092;28;20176;-51
2021/01/12 10:17:08;;;;;;;5.05;3.88;;;2.70;99.90;;;;;;5028059;22;20662;-46
2021/01/12 10:19:37;;;;;;;5.53;3.13;;;2.70;99.90;;;;;;5033443;28;20559;-47
2021/01/12 10:22:06;;;;;;;2.88;2.55;;;2.70;99.90;;;;;;5029703;28;20201;-47
2021/01/12 10:24:34;;;;;;;3.72;2.97;;;2.70;99.90;;;;;;5029052;28;20196;-45
2021/01/12 10:27:02;;;;;;;4.20;3.90;;;2.70;99.90;;;;;;5014622;28;20189;-46
2021/01/12 10:29:30;;;;;;;3.17;2.88;;;2.70;99.90;;;;;;5033051;28;20251;-47
2021/01/12 10:31:57;;;;;;;6.22;4.78;;;2.70;99.90;;;;;;5033068;28;20201;-48
2021/01/12 10:34:25;;;;;;;4.93;4.50;;;2.70;99.90;;;;;;5032673;28;20190;-49
2021/01/12 10:36:53;;;;;;;4.82;3.65;;;2.80;99.90;;;;;;5032026;28;20708;-48
2021/01/12 10:39:21;;;;;;;4.93;3.50;;;2.80;99.90;;;;;;5032821;28;20190;-47
2021/01/12 10:41:48;;;;;;;8.52;3.40;;;2.80;99.90;;;;;;5032572;28;20548;-44
2021/01/12 10:44:16;;;;;;;2.83;2.45;;;2.80;99.90;;;;;;5032291;28;20181;-45
2021/01/12 10:46:43;;;;;;;4.10;3.17;;;2.80;99.90;;;;;;5014846;28;20193;-45
2021/01/12 10:49:11;;;;;;;3.35;2.92;;;2.90;99.90;;;;;;5031786;28;20235;-47
2021/01/12 10:51:38;;;;;;;4.60;4.03;;;2.90;99.90;;;;;;5014627;28;20214;-46
2021/01/12 10:54:05;;;;;;;3.33;2.53;;;3.00;99.90;;;;;;5014521;28;20200;-50
2021/01/12 10:56:33;;;;;;;4.25;3.40;;;3.00;99.90;;;;;;5031719;28;20189;-48
2021/01/12 10:59:00;;;;;;;4.60;3.97;;;3.10;99.90;;;;;;5047457;28;20196;-50
2021/01/12 11:01:29;;;;;;;4.65;4.25;;;3.10;99.90;;;;;;5051066;28;20209;-46
2021/01/12 11:03:58;;;;;;;3.53;3.20;;;3.20;99.90;;;;;;5034002;28;20239;-49
2021/01/12 11:06:32;;;;;;;16.38;4.85;;;3.30;99.90;;;;;;5051882;28;20192;-48
2021/01/12 11:09:00;;;;;;;3.20;2.92;;;3.30;99.90;;;;;;5033780;28;20189;-47
2021/01/12 11:11:33;;;;;;;3.35;3.00;;;3.30;99.90;;;;;;5034103;28;20204;-46
2021/01/12 11:14:02;;;;;;;4.22;2.90;;;3.40;99.90;;;;;;5051515;28;20176;-49
2021/01/12 11:16:37;;;;;;;3.28;2.97;;;3.40;99.90;;;;;;5051347;28;20192;-46
2021/01/12 11:19:05;;;;;;;4.57;3.53;;;3.40;99.90;;;;;;5051753;28;20187;-49
2021/01/12 11:21:39;;;;;;;3.33;2.92;;;3.40;99.90;;;;;;5051615;28;20205;-54
2021/01/12 11:24:07;;;;;;;5.45;3.47;;;3.30;99.90;;;;;;5051893;28;20181;-49
2021/01/12 11:26:35;;;;;;;4.72;3.25;;;3.30;99.90;;;;;;5033755;28;20665;-50
2021/01/12 11:29:02;;;;;;;3.10;2.75;;;3.30;99.90;;;;;;5052631;28;20180;-47
2021/01/12 11:31:30;;;;;;;3.10;2.67;;;3.30;99.90;;;;;;5051981;28;20567;-49
2021/01/12 11:34:00;;;;;;;3.22;2.65;;;3.20;99.90;;;;;;5051576;28;20180;-49
2021/01/12 11:36:33;;;;;;;5.07;3.97;;;3.20;99.90;;;;;;5051661;28;20185;-52
2021/01/12 11:39:01;;;;;;;4.20;2.25;;;3.20;99.90;;;;;;5051553;28;20192;-47
2021/01/12 11:41:29;;;;;;;3.80;2.95;;;3.10;99.90;;;;;;5051483;28;20200;-48
2021/01/12 11:43:56;;;;;;;3.67;2.28;;;3.00;99.90;;;;;;5033929;28;20677;-51
2021/01/12 11:46:27;;;;;;;5.30;3.22;;;3.00;99.90;;;;;;5051774;28;20203;-44
2021/01/12 11:48:55;;;;;;;4.38;2.55;;;3.10;99.90;;;;;;5052174;28;20181;-51
2021/01/12 11:51:37;;;;;;;2.67;2.45;;;3.10;99.90;;;;;;5051259;28;20209;-51
2021/01/12 11:54:05;;;;;;;4.03;2.88;;;3.10;99.90;;;;;;5051562;28;20253;-45
2021/01/12 11:56:32;;;;;;;3.00;2.70;;;3.10;99.90;;;;;;5052148;28;20184;-44
2021/01/12 11:58:59;;;;;;;4.60;3.55;;;3.10;99.90;;;;;;5052328;28;20219;-47
2021/01/12 12:01:27;;;;;;;5.03;4.10;;;3.20;99.90;;;;;;5052462;28;20208;-50
2021/01/12 12:03:55;;;;;;;5.28;4.68;;;3.20;99.90;;;;;;5051820;28;20606;-46
2021/01/12 12:06:23;;;;;;;6.93;4.22;;;3.30;99.90;;;;;;5051844;28;20511;-49
2021/01/12 12:08:51;;;;;;;4.72;3.67;;;3.30;99.90;;;;;;5051776;28;20192;-49
2021/01/12 12:11:18;;;;;;;4.00;3.55;;;3.30;99.90;;;;;;5051841;28;20209;-46
2021/01/12 12:13:45;;;;;;;5.80;2.90;;;3.30;99.90;;;;;;5052164;28;20181;-46
2021/01/12 12:16:13;;;;;;;4.60;4.03;;;3.30;99.90;;;;;;5051368;28;20192;-48
2021/01/12 12:18:41;;;;;;;2.97;2.45;;;3.30;99.90;;;;;;5033038;28;20192;-47
2021/01/12 12:21:13;;;;;;;4.88;3.20;;;3.30;99.90;;;;;;5050957;28;20204;-49
2021/01/12 12:23:40;;;;;;;10.77;4.07;;;3.40;99.90;;;;;;5050943;28;20181;-45
2021/01/12 12:26:09;;;;;;;3.83;3.53;;;3.30;99.90;;;;;;5051407;28;20181;-49
2021/01/12 12:28:36;;;;;;;4.65;3.05;;;3.40;99.90;;;;;;5052745;28;20614;-45
2021/01/12 12:31:04;;;;;;;3.45;2.70;;;3.50;99.90;;;;;;5044173;28;20217;-51
2021/01/12 12:33:35;;;;;;;5.57;2.88;;;3.50;99.90;;;;;;5034881;28;20265;-48
2021/01/12 12:36:06;;;;;;;4.05;3.33;;;3.50;99.90;;;;;;5034743;28;20197;-50
2021/01/12 12:38:35;;;;;;;3.30;3.00;;;3.50;99.90;;;;;;5034573;28;20189;-50
2021/01/12 12:41:07;;;;;;;4.13;3.28;;;3.50;99.90;;;;;;5034428;28;20236;-45
2021/01/12 12:43:39;;;;;;;3.83;3.42;;;3.50;99.90;;;;;;5035836;28;20271;-51
2021/01/12 12:46:06;;;;;;;4.03;3.47;;;3.50;99.90;;;;;;5035748;28;20193;-46
2021/01/12 12:48:34;;;;;;;3.47;2.85;;;3.60;99.90;;;;;;5035327;28;20223;-45
2021/01/12 12:51:02;;;;;;;2.42;2.22;;;3.50;99.90;;;;;;5035158;28;20209;-44
2021/01/12 12:53:35;;;;;;;11.43;4.97;;;3.50;99.90;;;;;;5034754;28;20166;-47
2021/01/12 12:56:04;;;;;;;3.25;2.75;;;3.50;99.90;;;;;;5034549;28;20178;-49
2021/01/12 12:58:33;;;;;;;4.05;2.97;;;3.60;99.90;;;;;;5034526;28;20182;-46
2021/01/12 13:01:02;;;;;;;3.80;3.50;;;3.70;99.90;;;;;;5034215;28;20293;-48
2021/01/12 13:03:30;;;;;;;4.47;3.78;;;3.60;99.90;;;;;;5016288;28;20696;-52
2021/01/12 13:06:00;;;;;;;4.32;3.05;;;3.70;99.90;;;;;;5034235;28;20192;-45